createdAt,value
2019-04-28T00:00:41.130Z,18.45
2019-04-28T00:05:42.585Z,24.40
2019-04-28T00:15:45.058Z,21.12
2019-04-28T00:25:47.693Z,23.42
2019-04-28T00:35:51.566Z,29.37
2019-04-28T00:40:53.074Z,17.73
2019-04-28T00:50:55.587Z,20.97
2019-04-28T00:55:56.942Z,24.65
2019-04-28T01:05:59.466Z,21.40
2019-04-28T01:16:03.253Z,27.22
2019-04-28T01:26:05.759Z,20.60
2019-04-28T01:31:07.056Z,19.15
2019-04-28T01:41:11.311Z,19.20
2019-04-28T01:46:12.691Z,17.42
2019-04-28T01:56:15.210Z,13.62
2019-04-28T02:01:16.606Z,31.02
2019-04-28T02:06:19.741Z,19.12
2019-04-28T02:11:21.008Z,19.67
2019-04-28T02:21:23.590Z,15.80
2019-04-28T02:26:24.940Z,15.80
2019-04-28T02:31:26.289Z,22.22
2019-04-28T02:41:30.659Z,21.02
2019-04-28T02:46:31.804Z,22.73
2019-04-28T02:51:33.180Z,14.63
2019-04-28T03:01:35.711Z,27.93
2019-04-28T03:06:37.082Z,28.32
2019-04-28T03:11:42.763Z,23.12
2019-04-28T03:16:41.470Z,21.23
2019-04-28T03:21:43.160Z,22.58
2019-04-28T03:26:44.512Z,20.80
2019-04-28T03:36:48.765Z,21.23
2019-04-28T03:41:50.324Z,23.30
2019-04-28T03:46:51.695Z,20.75
2019-04-28T03:56:54.293Z,17.95
2019-04-28T04:07:01.420Z,26.25
2019-04-28T04:12:03.642Z,23.10
2019-04-28T04:17:05.079Z,22.85
2019-04-28T04:27:07.581Z,20.10
2019-04-28T04:37:12.634Z,16.90
2019-04-28T04:42:14.210Z,15.78
2019-04-28T04:52:16.720Z,12.75
2019-04-28T05:02:29.597Z,7.42
2019-04-28T05:07:22.241Z,8.28
2019-04-28T05:17:24.831Z,5.30
2019-04-28T05:27:27.412Z,5.67
2019-04-28T05:32:41.613Z,8.33
2019-04-28T05:37:31.721Z,6.08
2019-04-28T05:42:33.108Z,5.10
2019-04-28T05:47:34.517Z,5.65
2019-04-28T05:52:35.804Z,8.85
2019-04-28T06:02:39.683Z,6.28
2019-04-28T06:07:41.325Z,4.37
2019-04-28T06:17:43.834Z,8.58
2019-04-28T06:27:46.896Z,6.00
2019-04-28T06:32:48.188Z,10.65
2019-04-28T06:37:49.544Z,8.23
2019-04-28T06:42:50.915Z,8.88
2019-04-28T06:52:53.488Z,9.90
2019-04-28T07:02:55.993Z,11.63
2019-04-28T07:07:57.290Z,11.22
2019-04-28T07:17:59.780Z,9.20
2019-04-28T07:33:04.133Z,14.73
2019-04-28T07:38:05.419Z,11.45
2019-04-28T07:48:07.933Z,19.92
2019-04-28T07:58:10.417Z,12.55
2019-04-28T08:08:12.916Z,12.23
2019-04-28T08:18:15.495Z,10.32
2019-04-28T08:23:16.789Z,12.50
2019-04-28T08:33:19.365Z,14.60
2019-04-28T08:38:20.657Z,11.30
2019-04-28T08:48:23.191Z,8.13
2019-04-28T08:53:24.497Z,11.50
2019-04-28T09:03:27.050Z,7.92
2019-04-28T09:08:28.423Z,8.05
2019-04-28T09:13:29.733Z,7.70
2019-04-28T09:18:31.118Z,6.78
2019-04-28T09:23:32.410Z,9.00
2019-04-28T09:33:35.012Z,7.17
2019-04-28T09:38:36.386Z,6.60
2019-04-28T09:43:37.731Z,9.55
2019-04-28T09:53:40.259Z,12.37
2019-04-28T09:58:41.576Z,6.12
2019-04-28T10:03:42.865Z,4.33
2019-04-28T10:13:45.416Z,4.20
2019-04-28T10:18:46.704Z,5.30
2019-04-28T10:28:49.333Z,6.22
2019-04-28T10:33:50.732Z,4.78
2019-04-28T10:38:52.060Z,8.03
2019-04-28T10:43:53.395Z,7.33
2019-04-28T10:48:54.691Z,4.10
2019-04-28T10:53:55.998Z,5.00
2019-04-28T10:58:57.377Z,3.33
2019-04-28T11:03:58.757Z,6.15
2019-04-28T11:09:00.113Z,3.17
2019-04-28T11:14:01.413Z,2.17
2019-04-28T11:19:02.866Z,2.92
2019-04-28T11:24:04.159Z,2.83
2019-04-28T11:29:05.870Z,2.30
2019-04-28T11:34:07.179Z,2.85
2019-04-28T11:39:08.484Z,2.15
2019-04-28T11:44:09.776Z,3.17
2019-04-28T11:49:11.071Z,3.05
2019-04-28T11:54:12.430Z,2.52
2019-04-28T11:59:13.735Z,3.58
2019-04-28T12:04:15.097Z,3.47
2019-04-28T12:09:16.382Z,2.80
2019-04-28T12:14:17.697Z,4.28
2019-04-28T12:19:19.056Z,3.45
2019-04-28T12:24:20.373Z,3.52
2019-04-28T12:29:21.782Z,4.37
2019-04-28T12:34:23.417Z,4.08
2019-04-28T12:39:24.719Z,2.87
2019-04-28T12:44:26.078Z,2.35
2019-04-28T12:49:27.385Z,3.20
2019-04-28T12:54:28.749Z,3.27
2019-04-28T12:59:30.065Z,2.50
2019-04-28T13:04:31.435Z,5.87
2019-04-28T13:09:32.731Z,4.05
2019-04-28T13:14:34.040Z,4.35
2019-04-28T13:19:35.875Z,4.50
2019-04-28T13:24:37.198Z,5.00
2019-04-28T13:29:39.528Z,4.10
2019-04-28T13:34:40.864Z,4.53
2019-04-28T13:39:42.158Z,3.37
2019-04-28T13:44:43.511Z,5.65
2019-04-28T13:49:44.886Z,4.97
2019-04-28T13:54:46.263Z,4.55
2019-04-28T13:59:47.665Z,2.92
2019-04-28T14:04:48.994Z,3.35
2019-04-28T14:09:50.348Z,4.17
2019-04-28T14:14:51.693Z,4.80
2019-04-28T14:19:53.085Z,4.05
2019-04-28T14:24:54.802Z,3.92
2019-04-28T14:29:56.097Z,3.77
2019-04-28T14:34:57.512Z,3.47
2019-04-28T14:39:58.858Z,3.45
2019-04-28T14:45:00.224Z,2.67
2019-04-28T14:50:02.982Z,3.22
2019-04-28T14:55:04.531Z,2.47
2019-04-28T15:00:05.896Z,3.05
2019-04-28T15:05:07.228Z,5.12
2019-04-28T15:10:08.647Z,2.45
2019-04-28T15:15:10.040Z,3.47
2019-04-28T15:20:11.386Z,3.85
2019-04-28T15:25:12.702Z,4.83
2019-04-28T15:30:14.064Z,4.95
2019-04-28T15:35:15.676Z,3.25
2019-04-28T15:40:17.037Z,2.98
2019-04-28T15:45:18.335Z,2.75
2019-04-28T15:50:19.620Z,3.62
2019-04-28T15:55:20.983Z,5.30
2019-04-28T16:00:22.360Z,3.85
2019-04-28T16:05:23.969Z,4.67
2019-04-28T16:10:25.355Z,8.45
2019-04-28T16:15:26.649Z,7.65
2019-04-28T16:20:29.753Z,8.30
2019-04-28T16:25:31.264Z,8.75
2019-04-28T16:30:32.852Z,9.78
2019-04-28T16:35:34.179Z,7.20
2019-04-28T16:40:35.510Z,5.92
2019-04-28T16:45:36.821Z,5.03
2019-04-28T16:50:38.194Z,5.28
2019-04-28T16:55:39.571Z,5.83
2019-04-28T17:00:40.988Z,5.97
2019-04-28T17:05:42.272Z,8.03
2019-04-28T17:10:43.659Z,6.83
2019-04-28T17:15:45.031Z,7.28
2019-04-28T17:20:46.413Z,7.67
2019-04-28T17:25:47.687Z,7.28
2019-04-28T17:30:48.987Z,7.60
2019-04-28T17:35:50.282Z,7.85
2019-04-28T17:40:51.599Z,6.78
2019-04-28T17:45:52.972Z,5.97
2019-04-28T17:50:54.538Z,6.55
2019-04-28T17:55:55.857Z,6.90
2019-04-28T18:00:57.189Z,6.90
2019-04-28T18:05:58.509Z,10.40
2019-04-28T18:10:59.822Z,7.70
2019-04-28T18:16:01.142Z,8.45
2019-04-28T18:21:02.433Z,9.25
2019-04-28T18:26:03.731Z,7.72
2019-04-28T18:31:05.019Z,7.37
2019-04-28T18:36:06.766Z,9.13
2019-04-28T18:41:08.192Z,9.23
2019-04-28T18:46:09.478Z,7.53
2019-04-28T18:51:10.793Z,8.15
2019-04-28T18:56:12.103Z,9.95
2019-04-28T19:01:13.472Z,8.80
2019-04-28T19:06:14.877Z,8.73
2019-04-28T19:11:16.280Z,9.50
2019-04-28T19:16:17.579Z,12.20
2019-04-28T19:21:18.886Z,10.35
2019-04-28T19:26:20.206Z,14.13
2019-04-28T19:31:21.526Z,13.78
2019-04-28T19:36:22.917Z,12.80
2019-04-28T19:41:24.248Z,13.78
2019-04-28T19:46:25.568Z,12.00
2019-04-28T19:51:32.157Z,10.95
2019-04-28T19:56:29.876Z,13.95
2019-04-28T20:01:31.183Z,11.30
2019-04-28T20:06:32.512Z,14.20
2019-04-28T20:11:33.819Z,14.87
2019-04-28T20:16:35.195Z,12.88
2019-04-28T20:21:36.923Z,10.72
2019-04-28T20:26:38.284Z,11.20
2019-04-28T20:31:39.603Z,14.60
2019-04-28T20:36:40.907Z,13.78
2019-04-28T20:41:42.225Z,15.32
2019-04-28T20:46:43.595Z,12.73
2019-04-28T20:51:44.965Z,14.10
2019-04-28T20:56:46.251Z,13.28
2019-04-28T21:01:47.915Z,13.75
2019-04-28T21:06:49.297Z,13.75
2019-04-28T21:11:50.679Z,12.68
2019-04-28T21:16:52.035Z,13.50
2019-04-28T21:21:53.329Z,12.68
2019-04-28T21:31:56.204Z,13.43
2019-04-28T21:36:57.495Z,14.55
2019-04-28T21:47:00.016Z,15.25
2019-04-28T21:52:01.382Z,14.73
2019-04-28T21:57:02.691Z,19.62
2019-04-28T22:02:04.023Z,14.47
2019-04-28T22:07:05.335Z,14.93
2019-04-28T22:12:06.697Z,14.07
2019-04-28T22:22:09.197Z,12.30
2019-04-28T22:27:10.539Z,14.78
2019-04-28T22:32:11.856Z,15.05
2019-04-28T22:42:14.360Z,15.10
2019-04-28T22:47:15.980Z,15.70
2019-04-28T22:52:17.272Z,17.00
2019-04-28T22:57:18.654Z,13.85
2019-04-28T23:02:20.034Z,14.58
2019-04-28T23:07:21.317Z,16.02
2019-04-28T23:17:23.809Z,17.10
2019-04-28T23:22:25.104Z,15.43
2019-04-28T23:27:26.407Z,15.93
2019-04-28T23:32:27.694Z,17.77
2019-04-28T23:42:30.220Z,18.62
2019-04-28T23:47:31.558Z,15.78
2019-04-28T23:52:33.320Z,18.70
2019-04-28T23:57:34.618Z,17.00
